createdAt,value
2023-03-28T00:02:08.113Z,100.00
2023-03-28T00:04:34.769Z,100.00
2023-03-28T00:07:01.433Z,100.00
2023-03-28T00:09:28.081Z,100.00
2023-03-28T00:11:54.704Z,100.00
2023-03-28T00:14:21.545Z,100.00
2023-03-28T00:16:48.239Z,100.00
2023-03-28T00:19:17.798Z,100.00
2023-03-28T00:21:47.515Z,100.00
2023-03-28T00:24:16.855Z,100.00
2023-03-28T00:26:45.183Z,100.00
2023-03-28T00:29:16.738Z,100.00
2023-03-28T00:31:43.434Z,100.00
2023-03-28T00:34:10.058Z,100.00
2023-03-28T00:36:39.019Z,100.00
2023-03-28T00:39:07.012Z,100.00
2023-03-28T00:41:40.270Z,100.00
2023-03-28T00:44:41.106Z,100.00
2023-03-28T00:47:30.852Z,100.00
2023-03-28T00:50:07.226Z,100.00
2023-03-28T00:52:42.882Z,100.00
2023-03-28T00:55:15.564Z,100.00
2023-03-28T00:57:44.650Z,100.00
2023-03-28T01:00:12.545Z,100.00
2023-03-28T01:02:51.100Z,100.00
2023-03-28T01:05:22.558Z,100.00
2023-03-28T01:07:53.987Z,100.00
2023-03-28T01:10:22.567Z,100.00
2023-03-28T01:12:51.274Z,100.00
2023-03-28T01:15:18.028Z,100.00
2023-03-28T01:17:46.562Z,100.00
2023-03-28T01:20:16.283Z,100.00
2023-03-28T01:22:57.189Z,100.00
2023-03-28T01:25:43.066Z,100.00
2023-03-28T01:28:34.101Z,100.00
2023-03-28T01:31:19.514Z,100.00
2023-03-28T01:34:17.531Z,100.00
2023-03-28T01:36:47.164Z,100.00
2023-03-28T01:39:29.764Z,100.00
2023-03-28T01:42:20.031Z,100.00
2023-03-28T01:45:28.533Z,100.00
2023-03-28T01:48:13.961Z,100.00
2023-03-28T01:50:49.798Z,100.00
2023-03-28T01:53:28.649Z,100.00
2023-03-28T01:56:14.268Z,100.00
2023-03-28T01:58:50.194Z,100.00
2023-03-28T02:01:24.921Z,100.00
2023-03-28T02:03:56.359Z,100.00
2023-03-28T02:06:24.403Z,100.00
2023-03-28T02:08:54.985Z,100.00
2023-03-28T02:11:21.940Z,100.00
2023-03-28T02:13:57.898Z,100.00
2023-03-28T02:16:25.863Z,100.00
2023-03-28T02:18:57.996Z,100.00
2023-03-28T02:21:45.636Z,100.00
2023-03-28T02:24:12.773Z,100.00
2023-03-28T02:26:39.896Z,100.00
2023-03-28T02:29:09.008Z,100.00
2023-03-28T02:31:37.297Z,100.00
2023-03-28T02:34:03.999Z,100.00
2023-03-28T02:36:46.175Z,100.00
2023-03-28T02:39:36.919Z,100.00
2023-03-28T02:42:40.633Z,100.00
2023-03-28T02:45:18.204Z,100.00
2023-03-28T02:47:53.807Z,100.00
2023-03-28T02:50:25.898Z,100.00
2023-03-28T02:53:14.362Z,100.00
2023-03-28T02:55:57.115Z,100.00
2023-03-28T02:58:34.199Z,100.00
2023-03-28T03:01:03.581Z,100.00
2023-03-28T03:05:58.243Z,100.00
2023-03-28T03:08:25.255Z,100.00
2023-03-28T03:10:51.921Z,100.00
2023-03-28T03:13:18.428Z,100.00
2023-03-28T03:15:46.300Z,100.00
2023-03-28T03:18:13.236Z,100.00
2023-03-28T03:20:41.227Z,100.00
2023-03-28T03:23:08.260Z,100.00
2023-03-28T03:25:35.351Z,100.00
2023-03-28T03:28:01.957Z,100.00
2023-03-28T03:30:28.632Z,100.00
2023-03-28T03:32:56.086Z,100.00
2023-03-28T03:35:23.020Z,100.00
2023-03-28T03:37:49.704Z,100.00
2023-03-28T03:40:18.255Z,100.00
2023-03-28T03:42:44.903Z,100.00
2023-03-28T03:45:11.785Z,100.00
2023-03-28T03:47:38.522Z,100.00
2023-03-28T03:50:05.705Z,100.00
2023-03-28T03:52:32.425Z,100.00
2023-03-28T03:54:59.082Z,100.00
2023-03-28T03:57:26.352Z,100.00
2023-03-28T03:59:53.296Z,100.00
2023-03-28T04:02:20.303Z,100.00
2023-03-28T04:04:47.817Z,100.00
2023-03-28T04:07:15.417Z,100.00
2023-03-28T04:09:42.103Z,100.00
2023-03-28T04:12:10.514Z,100.00
2023-03-28T04:14:37.250Z,100.00
2023-03-28T04:17:04.660Z,100.00
2023-03-28T04:19:31.325Z,100.00
2023-03-28T04:21:59.361Z,100.00
2023-03-28T04:24:25.995Z,100.00
2023-03-28T04:26:56.161Z,100.00
2023-03-28T04:29:30.782Z,100.00
2023-03-28T04:31:58.901Z,100.00
2023-03-28T04:34:30.113Z,100.00
2023-03-28T04:37:02.011Z,100.00
2023-03-28T04:39:33.968Z,100.00
2023-03-28T04:42:02.034Z,98.68
2023-03-28T04:44:29.947Z,96.40
2023-03-28T04:46:58.348Z,94.31
2023-03-28T04:49:25.644Z,94.13
2023-03-28T04:51:52.776Z,93.90
2023-03-28T04:54:19.934Z,94.22
2023-03-28T04:56:50.954Z,94.75
2023-03-28T04:59:18.301Z,95.50
2023-03-28T05:01:49.465Z,96.04
2023-03-28T05:04:22.044Z,95.39
2023-03-28T05:06:50.348Z,94.47
2023-03-28T05:09:17.787Z,96.15
2023-03-28T05:11:46.467Z,94.98
2023-03-28T05:14:13.205Z,94.80
2023-03-28T05:16:40.032Z,94.51
2023-03-28T05:19:07.207Z,93.74
2023-03-28T05:21:33.957Z,92.29
2023-03-28T05:24:00.873Z,92.75
2023-03-28T05:26:28.205Z,92.79
2023-03-28T05:28:56.774Z,91.19
2023-03-28T05:31:26.163Z,90.02
2023-03-28T05:33:52.886Z,91.02
2023-03-28T05:36:19.627Z,89.69
2023-03-28T05:38:46.701Z,89.69
2023-03-28T05:41:14.330Z,85.05
2023-03-28T05:43:41.334Z,81.58
2023-03-28T05:46:08.268Z,82.83
2023-03-28T05:48:35.232Z,83.21
2023-03-28T05:51:02.175Z,84.39
2023-03-28T05:53:28.973Z,83.13
2023-03-28T05:55:55.756Z,82.31
2023-03-28T05:58:22.397Z,83.55
2023-03-28T06:00:49.128Z,83.78
2023-03-28T06:03:17.320Z,85.43
2023-03-28T06:05:44.812Z,83.77
2023-03-28T06:08:11.956Z,80.79
2023-03-28T06:10:38.956Z,80.13
2023-03-28T06:13:05.715Z,77.23
2023-03-28T06:15:33.129Z,78.50
2023-03-28T06:18:00.105Z,78.82
2023-03-28T06:20:26.954Z,77.08
2023-03-28T06:22:53.612Z,76.93
2023-03-28T06:25:20.331Z,78.36
2023-03-28T06:27:47.075Z,78.42
2023-03-28T06:30:14.351Z,79.18
2023-03-28T06:32:41.305Z,79.75
2023-03-28T06:35:08.901Z,78.72
2023-03-28T06:37:36.021Z,80.61
2023-03-28T06:40:03.601Z,82.92
2023-03-28T06:42:30.567Z,81.48
2023-03-28T06:44:57.220Z,79.96
2023-03-28T06:47:24.043Z,79.29
2023-03-28T06:49:50.765Z,78.82
2023-03-28T06:52:17.455Z,81.30
2023-03-28T06:54:45.315Z,81.77
2023-03-28T06:57:13.191Z,80.09
2023-03-28T06:59:39.858Z,80.03
2023-03-28T07:02:06.937Z,78.48
2023-03-28T07:04:34.991Z,78.10
2023-03-28T07:07:01.892Z,79.38
2023-03-28T07:09:28.525Z,78.66
2023-03-28T07:11:55.264Z,76.36
2023-03-28T07:14:21.922Z,76.37
2023-03-28T07:16:48.557Z,77.17
2023-03-28T07:19:15.374Z,79.68
2023-03-28T07:21:42.103Z,78.38
2023-03-28T07:24:08.927Z,77.35
2023-03-28T07:26:35.585Z,78.13
2023-03-28T07:29:02.279Z,76.59
2023-03-28T07:31:29.067Z,76.53
2023-03-28T07:33:58.947Z,77.52
2023-03-28T07:36:28.167Z,77.03
2023-03-28T07:38:55.331Z,76.13
2023-03-28T07:41:24.817Z,75.30
2023-03-28T07:43:51.571Z,73.23
2023-03-28T07:46:20.951Z,73.09
2023-03-28T07:48:47.792Z,71.55
2023-03-28T07:51:14.683Z,70.46
2023-03-28T07:53:41.488Z,72.93
2023-03-28T07:56:12.741Z,71.19
2023-03-28T07:58:40.964Z,71.40
2023-03-28T08:01:10.011Z,71.91
2023-03-28T08:03:37.005Z,71.38
2023-03-28T08:06:13.478Z,72.99
2023-03-28T08:08:47.161Z,70.10
2023-03-28T08:11:13.910Z,70.37
2023-03-28T08:13:40.577Z,71.90
2023-03-28T08:16:08.010Z,71.87
2023-03-28T08:18:34.654Z,71.81
2023-03-28T08:21:03.830Z,71.53
2023-03-28T08:23:30.880Z,71.77
2023-03-28T08:26:05.206Z,70.55
2023-03-28T08:28:36.490Z,71.06
2023-03-28T08:31:10.836Z,72.65
2023-03-28T08:33:37.892Z,72.43
2023-03-28T08:36:04.751Z,70.82
2023-03-28T08:38:31.611Z,70.88
2023-03-28T08:41:19.329Z,68.23
2023-03-28T08:44:04.247Z,70.67
2023-03-28T08:46:33.576Z,70.15
2023-03-28T08:49:07.644Z,68.54
2023-03-28T08:51:41.155Z,69.27
2023-03-28T08:54:13.994Z,70.41
2023-03-28T08:56:45.781Z,69.23
2023-03-28T08:59:16.692Z,68.21
2023-03-28T09:01:44.819Z,68.36
2023-03-28T09:04:35.403Z,68.78
2023-03-28T09:07:35.891Z,69.49
2023-03-28T09:10:40.619Z,68.31
2023-03-28T09:13:19.670Z,68.40
2023-03-28T09:15:59.909Z,70.24
2023-03-28T09:18:44.783Z,68.65
2023-03-28T09:21:25.964Z,71.67
2023-03-28T09:24:16.801Z,75.57
2023-03-28T09:27:02.609Z,76.92
2023-03-28T09:29:32.799Z,77.77
2023-03-28T09:32:08.170Z,77.45
2023-03-28T09:34:47.414Z,77.00
2023-03-28T09:37:29.337Z,75.27
2023-03-28T09:40:00.459Z,73.98
2023-03-28T09:42:31.516Z,70.50
2023-03-28T09:45:16.652Z,69.10
2023-03-28T09:47:57.257Z,66.50
2023-03-28T09:50:24.135Z,65.84
2023-03-28T09:52:53.594Z,64.65
2023-03-28T09:55:27.185Z,60.94
2023-03-28T09:58:10.098Z,59.44
2023-03-28T10:00:40.830Z,59.67
2023-03-28T10:03:23.119Z,60.28
2023-03-28T10:05:51.828Z,60.12
2023-03-28T10:08:29.587Z,59.98
2023-03-28T10:11:13.314Z,59.61
2023-03-28T10:13:47.207Z,58.98
2023-03-28T10:16:35.384Z,59.19
2023-03-28T10:19:03.290Z,58.50
2023-03-28T10:21:32.445Z,58.88
2023-03-28T10:24:05.317Z,59.11
2023-03-28T10:26:32.560Z,60.45
2023-03-28T10:29:04.501Z,59.89
2023-03-28T10:31:33.121Z,60.13
2023-03-28T10:34:02.821Z,60.20
2023-03-28T10:36:37.475Z,59.02
2023-03-28T10:39:24.260Z,61.66
2023-03-28T10:41:56.912Z,62.35
2023-03-28T10:44:37.956Z,64.03
2023-03-28T10:47:15.001Z,65.34
2023-03-28T10:50:02.206Z,67.18
2023-03-28T10:52:35.917Z,67.00
2023-03-28T10:55:31.020Z,65.50
2023-03-28T10:58:14.843Z,65.85
2023-03-28T11:00:48.917Z,60.29
2023-03-28T11:03:19.035Z,59.73
2023-03-28T11:06:08.751Z,59.61
2023-03-28T11:08:51.660Z,60.04
2023-03-28T11:11:18.255Z,59.89
2023-03-28T11:14:29.807Z,59.85
2023-03-28T11:17:20.333Z,59.59
2023-03-28T11:20:17.502Z,59.65
2023-03-28T11:23:06.488Z,59.10
2023-03-28T11:25:36.279Z,57.81
2023-03-28T11:28:21.252Z,59.06
2023-03-28T11:30:52.691Z,58.41
2023-03-28T11:33:44.230Z,53.50
2023-03-28T11:36:16.684Z,55.29
2023-03-28T11:38:50.772Z,54.42
2023-03-28T11:41:24.337Z,54.97
2023-03-28T11:43:53.871Z,55.22
2023-03-28T11:46:31.625Z,53.97
2023-03-28T11:49:11.667Z,52.63
2023-03-28T11:51:45.756Z,52.40
2023-03-28T11:54:16.279Z,53.32
2023-03-28T11:56:58.731Z,53.82
2023-03-28T11:59:25.565Z,53.67
2023-03-28T12:02:03.879Z,52.60
2023-03-28T12:04:39.269Z,52.55
2023-03-28T12:07:15.658Z,52.31
2023-03-28T12:10:04.791Z,52.79
2023-03-28T12:12:37.810Z,52.71
2023-03-28T12:15:31.609Z,52.89
2023-03-28T12:18:02.769Z,52.35
2023-03-28T12:20:39.853Z,50.71
2023-03-28T12:23:24.629Z,51.08
2023-03-28T12:26:07.923Z,50.98
2023-03-28T12:28:39.738Z,51.72
2023-03-28T12:31:21.819Z,52.76
2023-03-28T12:33:48.640Z,51.51
2023-03-28T12:36:21.209Z,50.49
2023-03-28T12:39:17.572Z,49.44
2023-03-28T12:41:45.433Z,49.37
2023-03-28T12:44:12.009Z,48.85
2023-03-28T12:47:05.866Z,48.40
2023-03-28T12:49:45.205Z,47.39
2023-03-28T12:52:17.753Z,47.30
2023-03-28T12:55:01.359Z,47.14
2023-03-28T12:57:41.030Z,45.84
2023-03-28T13:00:22.085Z,46.18
2023-03-28T13:03:10.549Z,46.20
2023-03-28T13:05:46.871Z,46.01
2023-03-28T13:08:44.516Z,46.33
2023-03-28T13:11:36.413Z,46.12
2023-03-28T13:14:24.258Z,46.31
2023-03-28T13:17:01.772Z,45.90
2023-03-28T13:19:43.317Z,44.96
2023-03-28T13:22:30.042Z,44.89
2023-03-28T13:25:25.904Z,43.78
2023-03-28T13:27:58.474Z,43.94
2023-03-28T13:30:34.393Z,43.41
2023-03-28T13:33:07.855Z,43.73
2023-03-28T13:35:48.908Z,43.20
2023-03-28T13:38:27.825Z,42.64
2023-03-28T13:40:59.566Z,42.80
2023-03-28T13:43:47.239Z,43.91
2023-03-28T13:46:19.077Z,42.92
2023-03-28T13:48:55.285Z,42.07
2023-03-28T13:51:29.981Z,41.41
2023-03-28T13:53:56.790Z,41.16
2023-03-28T13:56:27.966Z,41.21
2023-03-28T13:58:57.220Z,41.32
2023-03-28T14:01:26.993Z,40.71
2023-03-28T14:03:55.365Z,41.71
2023-03-28T14:06:27.794Z,41.38
2023-03-28T14:08:57.812Z,41.92
2023-03-28T14:11:31.832Z,42.39
2023-03-28T14:14:09.857Z,41.79
2023-03-28T14:16:37.699Z,42.31
2023-03-28T14:19:05.960Z,41.90
2023-03-28T14:21:33.491Z,41.49
2023-03-28T14:24:04.210Z,41.78
2023-03-28T14:26:34.495Z,42.68
2023-03-28T14:29:05.329Z,44.16
2023-03-28T14:31:40.834Z,43.83
2023-03-28T14:34:21.528Z,41.96
2023-03-28T14:37:18.579Z,42.84
2023-03-28T14:39:45.970Z,43.64
2023-03-28T14:42:18.496Z,43.23
2023-03-28T14:44:49.351Z,43.84
2023-03-28T14:47:33.350Z,45.39
2023-03-28T14:50:01.555Z,45.34
2023-03-28T14:52:31.573Z,44.88
2023-03-28T14:54:58.890Z,43.64
2023-03-28T14:57:26.592Z,43.17
2023-03-28T14:59:56.095Z,41.84
2023-03-28T15:02:35.392Z,41.79
2023-03-28T15:05:09.751Z,41.62
2023-03-28T15:07:37.484Z,42.31
2023-03-28T15:10:23.357Z,42.30
2023-03-28T15:13:20.305Z,42.18
2023-03-28T15:15:48.872Z,42.89
2023-03-28T15:18:19.743Z,42.22
2023-03-28T15:20:52.215Z,43.79
2023-03-28T15:23:32.168Z,45.64
2023-03-28T15:26:03.992Z,46.86
2023-03-28T15:28:31.584Z,46.61
2023-03-28T15:31:00.872Z,48.88
2023-03-28T15:33:33.645Z,49.95
2023-03-28T15:36:07.532Z,50.21
2023-03-28T15:38:39.552Z,50.80
2023-03-28T15:41:31.827Z,51.33
2023-03-28T15:44:10.122Z,51.53
2023-03-28T15:46:37.227Z,51.67
2023-03-28T15:49:06.999Z,53.61
2023-03-28T15:51:47.728Z,56.54
2023-03-28T15:54:27.922Z,57.51
2023-03-28T15:57:00.707Z,58.58
2023-03-28T15:59:36.187Z,59.37
2023-03-28T16:02:24.474Z,60.40
2023-03-28T16:05:09.050Z,60.89
2023-03-28T16:07:47.612Z,62.52
2023-03-28T16:10:22.424Z,64.43
2023-03-28T16:12:51.186Z,63.80
2023-03-28T16:15:19.258Z,63.81
2023-03-28T16:17:47.388Z,63.32
2023-03-28T16:20:25.461Z,61.68
2023-03-28T16:22:52.503Z,60.55
2023-03-28T16:25:19.513Z,58.25
2023-03-28T16:27:46.244Z,56.09
2023-03-28T16:30:25.275Z,55.53
2023-03-28T16:32:51.990Z,54.85
2023-03-28T16:35:18.688Z,53.55
2023-03-28T16:37:45.473Z,53.32
2023-03-28T16:40:12.425Z,53.34
2023-03-28T16:42:39.132Z,52.84
2023-03-28T16:45:07.173Z,53.45
2023-03-28T16:47:33.833Z,54.63
2023-03-28T16:50:00.514Z,56.74
2023-03-28T16:52:29.220Z,60.81
2023-03-28T16:54:56.768Z,65.39
2023-03-28T16:57:23.392Z,69.19
2023-03-28T16:59:50.137Z,70.76
2023-03-28T17:02:17.344Z,73.13
2023-03-28T17:04:49.390Z,76.75
2023-03-28T17:07:15.989Z,81.24
2023-03-28T17:09:43.184Z,82.63
2023-03-28T17:12:09.914Z,84.79
2023-03-28T17:14:36.753Z,84.02
2023-03-28T17:17:03.503Z,82.91
2023-03-28T17:19:30.257Z,79.60
2023-03-28T17:21:56.867Z,79.17
2023-03-28T17:24:24.000Z,76.38
2023-03-28T17:26:50.895Z,74.67
2023-03-28T17:29:17.554Z,74.56
2023-03-28T17:31:44.508Z,75.39
2023-03-28T17:34:12.779Z,74.68
2023-03-28T17:36:41.351Z,75.16
2023-03-28T17:39:13.216Z,76.62
2023-03-28T17:41:39.954Z,77.77
2023-03-28T17:44:07.128Z,76.63
2023-03-28T17:46:33.884Z,76.05
2023-03-28T17:49:00.661Z,76.78
2023-03-28T17:51:28.459Z,77.86
2023-03-28T17:53:55.449Z,78.09
2023-03-28T17:56:22.254Z,79.29
2023-03-28T17:58:48.939Z,79.53
2023-03-28T18:01:18.524Z,80.08
2023-03-28T18:03:46.259Z,81.25
2023-03-28T18:06:13.475Z,80.92
2023-03-28T18:08:40.616Z,81.68
2023-03-28T18:11:09.966Z,82.86
2023-03-28T18:13:38.315Z,82.49
2023-03-28T18:16:09.365Z,82.49
2023-03-28T18:18:36.476Z,83.98
2023-03-28T18:21:04.338Z,85.53
2023-03-28T18:23:31.954Z,85.82
2023-03-28T18:25:59.104Z,86.75
2023-03-28T18:28:26.620Z,87.77
2023-03-28T18:30:54.262Z,88.88
2023-03-28T18:33:24.839Z,87.72
2023-03-28T18:35:51.757Z,88.03
2023-03-28T18:38:18.998Z,87.58
2023-03-28T18:40:52.516Z,87.75
2023-03-28T18:43:19.259Z,88.92
2023-03-28T18:45:54.188Z,89.14
2023-03-28T18:48:21.978Z,89.34
2023-03-28T18:50:48.660Z,88.95
2023-03-28T18:53:15.456Z,89.19
2023-03-28T18:55:42.663Z,89.27
2023-03-28T18:58:11.645Z,90.03
2023-03-28T19:00:38.956Z,89.37
2023-03-28T19:03:09.412Z,89.79
2023-03-28T19:05:37.245Z,88.76
2023-03-28T19:08:04.543Z,89.64
2023-03-28T19:10:31.607Z,88.53
2023-03-28T19:12:58.612Z,90.62
2023-03-28T19:15:25.806Z,92.04
2023-03-28T19:17:52.654Z,93.44
2023-03-28T19:20:19.618Z,95.36
2023-03-28T19:22:46.793Z,96.98
2023-03-28T19:25:14.412Z,98.26
2023-03-28T19:27:41.958Z,98.38
2023-03-28T19:30:09.859Z,96.79
2023-03-28T19:32:36.593Z,98.32
2023-03-28T19:35:03.411Z,99.74
2023-03-28T19:37:30.238Z,100.00
2023-03-28T19:39:59.240Z,99.08
2023-03-28T19:42:26.352Z,99.04
2023-03-28T19:44:53.526Z,96.87
2023-03-28T19:47:20.230Z,96.22
2023-03-28T19:49:47.263Z,97.03
2023-03-28T19:52:14.054Z,95.50
2023-03-28T19:54:41.212Z,95.63
2023-03-28T19:57:08.518Z,94.83
2023-03-28T19:59:35.702Z,95.07
2023-03-28T20:02:02.394Z,94.06
2023-03-28T20:04:29.262Z,95.46
2023-03-28T20:06:55.949Z,96.29
2023-03-28T20:09:24.314Z,97.85
2023-03-28T20:11:51.153Z,97.94
2023-03-28T20:14:20.218Z,96.11
2023-03-28T20:16:48.024Z,95.47
2023-03-28T20:19:14.696Z,94.65
2023-03-28T20:21:41.408Z,95.53
2023-03-28T20:24:08.574Z,94.41
2023-03-28T20:26:35.486Z,92.95
2023-03-28T20:29:02.103Z,91.61
2023-03-28T20:31:29.117Z,91.97
2023-03-28T20:33:56.678Z,92.85
2023-03-28T20:36:23.719Z,93.77
2023-03-28T20:38:50.879Z,93.84
2023-03-28T20:41:18.768Z,93.26
2023-03-28T20:43:50.121Z,92.37
2023-03-28T20:46:21.233Z,91.06
2023-03-28T20:48:52.565Z,91.64
2023-03-28T20:51:22.616Z,89.11
2023-03-28T20:53:54.471Z,87.00
2023-03-28T20:56:21.955Z,87.61
2023-03-28T20:58:50.975Z,86.80
2023-03-28T21:01:18.505Z,86.53
2023-03-28T21:03:52.035Z,85.76
2023-03-28T21:06:31.373Z,85.16
2023-03-28T21:09:00.520Z,84.49
2023-03-28T21:11:29.937Z,84.22
2023-03-28T21:13:57.891Z,82.31
2023-03-28T21:16:26.126Z,83.58
2023-03-28T21:18:52.834Z,82.83
2023-03-28T21:21:21.177Z,81.71
2023-03-28T21:23:48.695Z,80.93
2023-03-28T21:26:21.291Z,80.55
2023-03-28T21:28:48.988Z,80.95
2023-03-28T21:31:20.941Z,80.92
2023-03-28T21:33:49.037Z,80.95
2023-03-28T21:36:17.693Z,81.20
2023-03-28T21:38:44.902Z,80.64
2023-03-28T21:41:12.179Z,79.73
2023-03-28T21:43:39.337Z,81.73
2023-03-28T21:46:07.730Z,81.76
2023-03-28T21:48:35.200Z,85.86
2023-03-28T21:51:03.266Z,85.73
2023-03-28T21:53:32.537Z,85.90
2023-03-28T21:55:59.665Z,84.67
2023-03-28T21:58:29.360Z,84.69
2023-03-28T22:00:56.313Z,82.52
2023-03-28T22:03:23.728Z,81.94
2023-03-28T22:05:52.086Z,82.44
2023-03-28T22:08:19.343Z,83.27
2023-03-28T22:10:52.608Z,83.66
2023-03-28T22:13:20.225Z,84.33
2023-03-28T22:15:46.906Z,83.85
2023-03-28T22:18:13.689Z,83.67
2023-03-28T22:20:42.433Z,83.48
2023-03-28T22:23:09.929Z,83.66
2023-03-28T22:25:38.446Z,84.25
2023-03-28T22:28:07.812Z,84.16
2023-03-28T22:30:35.916Z,85.72
2023-03-28T22:33:04.018Z,86.86
2023-03-28T22:35:32.445Z,87.53
2023-03-28T22:38:00.212Z,86.06
2023-03-28T22:40:27.027Z,87.11
2023-03-28T22:42:57.014Z,85.94
2023-03-28T22:45:26.543Z,86.44
2023-03-28T22:47:53.782Z,87.01
2023-03-28T22:50:22.637Z,86.75
2023-03-28T22:52:53.005Z,87.59
2023-03-28T22:55:22.861Z,88.70
2023-03-28T22:57:51.695Z,89.94
2023-03-28T23:00:22.945Z,92.14
2023-03-28T23:02:51.830Z,93.43
2023-03-28T23:05:19.437Z,93.34
2023-03-28T23:07:46.161Z,93.56
2023-03-28T23:10:16.485Z,92.87
2023-03-28T23:12:44.170Z,93.11
2023-03-28T23:15:11.778Z,93.46
2023-03-28T23:17:39.005Z,94.53
2023-03-28T23:20:13.013Z,94.33
2023-03-28T23:22:41.637Z,96.16
2023-03-28T23:25:09.148Z,96.49
2023-03-28T23:27:35.894Z,97.29
2023-03-28T23:30:02.800Z,98.78
2023-03-28T23:32:29.481Z,100.00
2023-03-28T23:34:56.126Z,100.00
2023-03-28T23:37:26.095Z,100.00
2023-03-28T23:56:46.201Z,94.81
2023-03-28T23:59:13.101Z,95.58
